Time;durP1;ratioP1;P1;durP2;ratioP2;P2;SDS_P1;SDS_P2;PMS_P1;PMS_P2;Temp;Humidity;BMP_temperature;BMP_pressure;BME280_temperature;BME280_humidity;BME280_pressure;Samples;Min_cycle;Max_cycle;Signal;HPM_P1;HPM_P2
2019/04/21 00:01:39;;;;;;;14.6;10.3;;;;;;;7.53;64.28125;965.9434;;;;
2019/04/21 00:04:04;;;;;;;14.3;10.4;;;;;;;7.43;64.83789;965.9051;;;;
2019/04/21 00:06:31;;;;;;;15.7;10.7;;;;;;;7.33;64.69727;965.8879;;;;
2019/04/21 00:08:56;;;;;;;15.6;11.6;;;;;;;7.26;65.50098;965.9319;;;;
2019/04/21 00:11:21;;;;;;;17.5;11.4;;;;;;;7.3;65.00195;965.907;;;;
2019/04/21 00:13:46;;;;;;;16.3;10.2;;;;;;;7.28;63.28125;965.8917;;;;
2019/04/21 00:16:11;;;;;;;17;10.7;;;;;;;7.17;64.4668;966.0154;;;;
2019/04/21 00:18:46;;;;;;;13.7;10.3;;;;;;;7.14;63.87891;965.9036;;;;
2019/04/21 00:21:02;;;;;;;14.8;9.9;;;;;;;7.1;64.20508;965.894;;;;
2019/04/21 00:23:28;;;;;;;16;10.3;;;;;;;7.27;63.38379;965.8931;;;;
2019/04/21 00:25:54;;;;;;;16.7;11;;;;;;;7.15;65.25391;965.8601;;;;
2019/04/21 00:28:19;;;;;;;16.2;11;;;;;;;7.12;64.74512;965.9053;;;;
2019/04/21 00:30:44;;;;;;;15.5;10.4;;;;;;;7.04;64.83691;965.7417;;;;
2019/04/21 00:33:09;;;;;;;15.8;11.4;;;;;;;7.06;64.30176;965.7992;;;;
2019/04/21 00:35:37;;;;;;;16.4;10.8;;;;;;;6.99;64.98828;965.7759;;;;
2019/04/21 00:38:02;;;;;;;14;10.4;;;;;;;6.96;63.83984;965.7317;;;;
2019/04/21 00:40:29;;;;;;;14.9;11.1;;;;;;;6.88;65.52246;965.7888;;;;
2019/04/21 00:42:54;;;;;;;14.7;10.8;;;;;;;6.86;66.86914;965.7181;;;;
2019/04/21 00:45:19;;;;;;;14.5;10.9;;;;;;;6.85;67.25684;965.7617;;;;
2019/04/21 00:47:45;;;;;;;14.9;11.1;;;;;;;6.72;68.28809;965.7212;;;;
2019/04/21 00:50:13;;;;;;;15.2;10.7;;;;;;;6.65;68.08203;965.7014;;;;
2019/04/21 00:52:41;;;;;;;15.4;11.4;;;;;;;6.54;68.43066;965.6843;;;;
2019/04/21 00:55:07;;;;;;;16.6;12.1;;;;;;;6.51;68.24414;965.6655;;;;
2019/04/21 00:57:25;;;;;;;14.8;10.8;;;;;;;6.45;68.57715;965.6749;;;;
2019/04/21 00:59:51;;;;;;;15.6;11.2;;;;;;;6.34;68.77539;965.6373;;;;
2019/04/21 01:02:16;;;;;;;17.4;11.1;;;;;;;6.44;67.39844;965.616;;;;
2019/04/21 01:04:41;;;;;;;15.5;10.9;;;;;;;6.17;66.64648;965.5869;;;;
2019/04/21 01:07:08;;;;;;;15.1;11.2;;;;;;;6.14;66.88184;965.6019;;;;
2019/04/21 01:09:33;;;;;;;15;11.7;;;;;;;6.03;67.81152;965.5555;;;;
2019/04/21 01:11:59;;;;;;;16.1;12.4;;;;;;;6.05;68.4668;965.486;;;;
2019/04/21 01:14:24;;;;;;;16.7;11.7;;;;;;;5.95;68.91895;965.447;;;;
2019/04/21 01:16:50;;;;;;;15.9;11.6;;;;;;;5.94;69.08887;965.473;;;;
2019/04/21 01:19:15;;;;;;;14.7;11.8;;;;;;;5.89;67.80176;965.4683;;;;
2019/04/21 01:21:40;;;;;;;15.6;12.1;;;;;;;5.76;69.20801;965.495;;;;
2019/04/21 01:24:05;;;;;;;15.3;11.9;;;;;;;5.69;69.79004;965.5001;;;;
2019/04/21 01:26:31;;;;;;;17.5;12.6;;;;;;;5.72;70.33105;965.4984;;;;
2019/04/21 01:28:55;;;;;;;15.8;12.4;;;;;;;5.69;69.72168;965.5047;;;;
2019/04/21 01:31:20;;;;;;;16.1;12.6;;;;;;;5.54;70.0166;965.4778;;;;
2019/04/21 01:33:45;;;;;;;15.1;12.5;;;;;;;5.51;69.78418;965.4125;;;;
2019/04/21 01:36:10;;;;;;;18.3;12.7;;;;;;;5.4;70.42773;965.3786;;;;
2019/04/21 01:38:35;;;;;;;16.1;12.4;;;;;;;5.32;70.50391;965.3889;;;;
2019/04/21 01:41:01;;;;;;;18.5;12.9;;;;;;;5.29;70.38672;965.3865;;;;
2019/04/21 01:43:27;;;;;;;19.7;12.8;;;;;;;5.31;70.36719;965.3809;;;;
2019/04/21 01:45:52;;;;;;;15.1;12.8;;;;;;;5.28;70.1543;965.3878;;;;
2019/04/21 01:48:17;;;;;;;17.9;12.3;;;;;;;5.27;70.09766;965.3463;;;;
2019/04/21 01:50:42;;;;;;;16;11.6;;;;;;;5.24;70.33301;965.3566;;;;
2019/04/21 01:53:28;;;;;;;18.8;12;;;;;;;5.14;72.12793;965.3386;;;;
2019/04/21 01:58:20;;;;;;;16.9;12.9;;;;;;;5.15;73.99707;965.3086;;;;
2019/04/21 02:00:55;;;;;;;19.6;13.3;;;;;;;5.09;73.64551;965.351;;;;
2019/04/21 02:03:19;;;;;;;15.9;12.6;;;;;;;5.05;71.86133;965.3835;;;;
2019/04/21 02:05:44;;;;;;;18;13.1;;;;;;;5.01;71.22852;965.361;;;;
2019/04/21 02:08:10;;;;;;;18.4;12.6;;;;;;;5;71.46582;965.3448;;;;
2019/04/21 02:10:35;;;;;;;18.3;12.5;;;;;;;4.99;70.97461;965.3031;;;;
2019/04/21 02:13:00;;;;;;;17.8;12.7;;;;;;;5.01;71.55762;965.2855;;;;
2019/04/21 02:15:25;;;;;;;20.1;12.8;;;;;;;4.98;72.41895;965.2662;;;;
2019/04/21 02:17:51;;;;;;;15.5;12.4;;;;;;;4.94;71.91016;965.2604;;;;
2019/04/21 02:20:16;;;;;;;16.8;12.6;;;;;;;4.91;74.03613;965.3049;;;;
2019/04/21 02:22:42;;;;;;;16.4;12.9;;;;;;;4.93;74.97363;965.2277;;;;
2019/04/21 02:25:07;;;;;;;16.9;13;;;;;;;4.97;75.99219;965.2842;;;;
2019/04/21 02:27:32;;;;;;;18;12.4;;;;;;;4.99;73.35547;965.2271;;;;
2019/04/21 02:29:57;;;;;;;15;12.1;;;;;;;4.94;73.18652;965.1083;;;;
2019/04/21 02:32:22;;;;;;;16.3;12.1;;;;;;;4.98;72.62305;965.1014;;;;
2019/04/21 02:34:47;;;;;;;16.7;12.1;;;;;;;4.98;71.99805;965.0294;;;;
2019/04/21 02:37:12;;;;;;;17.5;12.3;;;;;;;5.08;70.80566;965.0686;;;;
2019/04/21 02:39:38;;;;;;;16.5;12.4;;;;;;;5.07;70.61035;965.0779;;;;
2019/04/21 02:42:04;;;;;;;18.4;12;;;;;;;4.97;71.00488;965.0045;;;;
2019/04/21 02:44:29;;;;;;;16.2;11.4;;;;;;;4.96;71.13965;965.0098;;;;
2019/04/21 02:46:54;;;;;;;15.5;11.4;;;;;;;4.86;71.32813;964.9703;;;;
2019/04/21 02:49:19;;;;;;;14.9;10.9;;;;;;;4.83;71.48145;964.9347;;;;
2019/04/21 02:51:46;;;;;;;14;11;;;;;;;4.85;70.07422;964.9334;;;;
2019/04/21 02:54:11;;;;;;;17.2;10.9;;;;;;;4.8;70.25879;964.9034;;;;
2019/04/21 02:56:37;;;;;;;16.7;11;;;;;;;4.79;70.24609;964.9168;;;;
2019/04/21 02:59:08;;;;;;;16.5;11.1;;;;;;;4.92;69.33398;964.8985;;;;
2019/04/21 03:01:36;;;;;;;14.4;10.5;;;;;;;4.94;69.40527;964.8333;;;;
2019/04/21 03:03:57;;;;;;;15.2;11.1;;;;;;;4.8;69.84961;964.8147;;;;
2019/04/21 03:06:24;;;;;;;15.6;10.8;;;;;;;4.74;70.20508;964.7894;;;;
2019/04/21 03:08:43;;;;;;;15.2;10.9;;;;;;;4.81;69.6582;964.7795;;;;
2019/04/21 03:11:08;;;;;;;15.7;10.7;;;;;;;4.77;69.85645;964.7529;;;;
2019/04/21 03:13:33;;;;;;;13;10.6;;;;;;;4.67;70.0332;964.7689;;;;
2019/04/21 03:15:58;;;;;;;12.7;10.5;;;;;;;4.63;70.18555;964.7383;;;;
2019/04/21 03:18:25;;;;;;;13.2;10.5;;;;;;;4.62;70.19531;964.6542;;;;
2019/04/21 03:20:51;;;;;;;13.5;10.5;;;;;;;4.58;70.38281;964.5769;;;;
2019/04/21 03:23:16;;;;;;;16.1;11.3;;;;;;;4.6;70.30664;964.5797;;;;
2019/04/21 03:25:41;;;;;;;13.9;11.3;;;;;;;4.52;70.81543;964.5522;;;;
2019/04/21 03:28:07;;;;;;;15.1;11.7;;;;;;;4.44;71.05371;964.5536;;;;
2019/04/21 03:30:31;;;;;;;13.5;11.1;;;;;;;4.44;71.07617;964.4903;;;;
2019/04/21 03:32:57;;;;;;;16.2;11.8;;;;;;;4.43;71.43848;964.5463;;;;
2019/04/21 03:35:22;;;;;;;16.5;11.9;;;;;;;4.39;71.37305;964.4436;;;;
2019/04/21 03:37:47;;;;;;;14;11.5;;;;;;;4.36;72.50684;964.4197;;;;
2019/04/21 03:40:16;;;;;;;14.3;11.6;;;;;;;4.36;73.80273;964.3823;;;;
2019/04/21 03:42:41;;;;;;;16.2;11.8;;;;;;;4.3;76.33105;964.3777;;;;
2019/04/21 03:45:06;;;;;;;14.8;12.8;;;;;;;4.23;77.33008;964.3531;;;;
2019/04/21 03:47:33;;;;;;;16.4;12.1;;;;;;;4.23;78.5332;964.4252;;;;
2019/04/21 03:49:58;;;;;;;18;12.6;;;;;;;4.33;78.05078;964.4099;;;;
2019/04/21 03:52:30;;;;;;;15.3;11.9;;;;;;;4.27;75.85938;964.4431;;;;
2019/04/21 03:54:56;;;;;;;13.1;11.1;;;;;;;4.17;76.63672;964.383;;;;
2019/04/21 03:57:21;;;;;;;15.7;12.1;;;;;;;4.13;76.19434;964.4244;;;;
2019/04/21 03:59:46;;;;;;;14.5;11.1;;;;;;;4.11;75.94336;964.4252;;;;
2019/04/21 04:02:52;;;;;;;15.5;12.3;;;;;;;4.03;77.06641;964.4309;;;;
2019/04/21 04:05:18;;;;;;;16.5;13.2;;;;;;;4.04;79.93066;964.4603;;;;
2019/04/21 04:07:37;;;;;;;17;13;;;;;;;3.99;80.12695;964.4802;;;;
2019/04/21 04:10:06;;;;;;;16;12.4;;;;;;;3.97;79.76953;964.4058;;;;
2019/04/21 04:12:33;;;;;;;17.5;13.2;;;;;;;3.88;79.83398;964.4163;;;;
2019/04/21 04:14:58;;;;;;;16.3;13;;;;;;;3.9;79.3584;964.3561;;;;
2019/04/21 04:17:24;;;;;;;16.5;12.9;;;;;;;3.86;79.25;964.4135;;;;
2019/04/21 04:19:50;;;;;;;19.2;12.8;;;;;;;3.79;78.75977;964.3636;;;;
2019/04/21 04:22:15;;;;;;;16.7;12.4;;;;;;;3.75;78.45703;964.3708;;;;
2019/04/21 04:24:40;;;;;;;16.9;12.2;;;;;;;3.72;77.75781;964.3859;;;;
2019/04/21 04:27:05;;;;;;;14.4;11.6;;;;;;;3.81;76.75195;964.3834;;;;
2019/04/21 04:29:30;;;;;;;17.2;11.6;;;;;;;3.86;76.83008;964.452;;;;
2019/04/21 04:31:58;;;;;;;16.5;12.3;;;;;;;3.8;78.05664;964.4642;;;;
2019/04/21 04:34:24;;;;;;;15.6;12.4;;;;;;;3.8;80.38574;964.4475;;;;
2019/04/21 04:37:01;;;;;;;15.1;12.2;;;;;;;3.83;79.30176;964.4662;;;;
2019/04/21 04:39:37;;;;;;;14.8;12.3;;;;;;;3.84;80.17773;964.4443;;;;
2019/04/21 04:41:59;;;;;;;16.2;13.5;;;;;;;3.99;80.39844;964.4808;;;;
2019/04/21 04:44:20;;;;;;;15.1;12.2;;;;;;;3.97;80.38184;964.4484;;;;
2019/04/21 04:46:46;;;;;;;18.3;12.9;;;;;;;3.96;79.35938;964.4656;;;;
2019/04/21 04:49:12;;;;;;;17.3;12.4;;;;;;;4.04;79.2832;964.4222;;;;
2019/04/21 04:51:41;;;;;;;15.3;12.8;;;;;;;4.08;79.00586;964.4109;;;;
2019/04/21 04:54:06;;;;;;;14.7;12.1;;;;;;;4.14;78.48438;964.3005;;;;
2019/04/21 04:56:32;;;;;;;16.1;12.9;;;;;;;4.1;78.06543;964.3884;;;;
2019/04/21 04:58:57;;;;;;;16.7;12.2;;;;;;;4.16;77.58789;964.4133;;;;
2019/04/21 05:01:32;;;;;;;17.9;12.8;;;;;;;4.22;77.79395;964.3497;;;;
2019/04/21 05:03:57;;;;;;;16.8;13.3;;;;;;;4.33;78.59668;964.3465;;;;
2019/04/21 05:06:22;;;;;;;15;13.4;;;;;;;4.43;78.07031;964.3434;;;;
2019/04/21 05:08:47;;;;;;;16.5;13.2;;;;;;;4.51;77.61914;964.2863;;;;
2019/04/21 05:11:12;;;;;;;15.2;13.2;;;;;;;4.59;77.33594;964.2894;;;;
2019/04/21 05:13:38;;;;;;;17.5;13.4;;;;;;;4.66;76.50684;964.3178;;;;
2019/04/21 05:16:03;;;;;;;16.7;13;;;;;;;4.78;75.17285;964.3131;;;;
2019/04/21 05:18:33;;;;;;;18.1;13.2;;;;;;;4.88;74.08691;964.2974;;;;
2019/04/21 05:20:58;;;;;;;19;14.2;;;;;;;5.01;74.82813;964.3844;;;;
2019/04/21 05:23:24;;;;;;;17.2;12.9;;;;;;;5.08;74.11035;964.3796;;;;
2019/04/21 05:25:49;;;;;;;20.3;14.1;;;;;;;5.14;73.21094;964.4847;;;;
2019/04/21 05:28:14;;;;;;;16.8;13;;;;;;;5.31;72.78223;964.4886;;;;
2019/04/21 05:30:51;;;;;;;18.6;13.6;;;;;;;5.49;71.67285;964.5045;;;;
2019/04/21 05:35:41;;;;;;;18.4;13.3;;;;;;;5.74;69.71777;964.4386;;;;
2019/04/21 05:38:09;;;;;;;16.7;13.5;;;;;;;5.81;68.47363;964.4501;;;;
2019/04/21 05:40:30;;;;;;;17.4;14.3;;;;;;;5.98;65.55664;964.3943;;;;
2019/04/21 05:42:55;;;;;;;19.2;14.2;;;;;;;6.15;63.94824;964.3513;;;;
2019/04/21 05:45:23;;;;;;;17.6;13.7;;;;;;;6.46;60.63477;964.3942;;;;
2019/04/21 05:47:58;;;;;;;18.1;14.4;;;;;;;6.46;60.13184;964.3602;;;;
2019/04/21 05:50:17;;;;;;;18.5;14.8;;;;;;;6.63;58.41699;964.3632;;;;
2019/04/21 05:52:42;;;;;;;18.6;14.4;;;;;;;6.78;57.54492;964.2919;;;;
2019/04/21 05:55:07;;;;;;;18.6;14.1;;;;;;;6.95;57.17969;964.2014;;;;
2019/04/21 05:57:36;;;;;;;19;14.9;;;;;;;7.17;56.36133;964.2252;;;;
2019/04/21 06:00:01;;;;;;;21.6;15.1;;;;;;;7.34;55.77734;964.2275;;;;
2019/04/21 06:02:27;;;;;;;17.3;14;;;;;;;7.45;54.54297;964.252;;;;
2019/04/21 06:04:52;;;;;;;17.8;13.4;;;;;;;7.6;54.45898;964.2776;;;;
2019/04/21 06:07:18;;;;;;;15.8;13.4;;;;;;;7.74;54.10938;964.304;;;;
2019/04/21 06:09:43;;;;;;;20.4;14.3;;;;;;;7.89;53.56543;964.3211;;;;
2019/04/21 06:12:09;;;;;;;18.1;13.9;;;;;;;7.98;53.48535;964.2748;;;;
2019/04/21 06:14:34;;;;;;;17;13.4;;;;;;;8.12;52.41211;964.2795;;;;
2019/04/21 06:16:59;;;;;;;17.1;12.7;;;;;;;8.23;52.25391;964.2739;;;;
2019/04/21 06:19:25;;;;;;;18.5;12.4;;;;;;;8.42;51.95703;964.2614;;;;
2019/04/21 06:21:49;;;;;;;18.2;12.4;;;;;;;8.5;51.50684;964.1949;;;;
2019/04/21 06:24:14;;;;;;;14.5;11.3;;;;;;;8.63;49.72949;964.1746;;;;
2019/04/21 06:26:41;;;;;;;17.4;11.9;;;;;;;8.86;51.6416;964.2302;;;;
2019/04/21 06:29:06;;;;;;;14.1;11.5;;;;;;;9.06;50.22656;964.1184;;;;
2019/04/21 06:31:43;;;;;;;16.5;12;;;;;;;9.14;48.94922;964.1362;;;;
2019/04/21 06:34:23;;;;;;;16.2;11.5;;;;;;;9.29;47.98828;964.1308;;;;
2019/04/21 06:36:51;;;;;;;15.1;11.6;;;;;;;9.37;48.00879;964.158;;;;
2019/04/21 06:39:22;;;;;;;15.8;11.6;;;;;;;9.49;47.80273;964.1937;;;;
2019/04/21 06:41:47;;;;;;;16.5;11.6;;;;;;;9.66;47.60352;964.122;;;;
2019/04/21 06:44:13;;;;;;;15.7;11.3;;;;;;;9.77;47.8916;964.1118;;;;
2019/04/21 06:46:43;;;;;;;15.7;11.3;;;;;;;9.94;47.66797;964.1894;;;;
2019/04/21 06:49:22;;;;;;;15.6;10.7;;;;;;;9.98;47.41895;964.1513;;;;
2019/04/21 06:51:47;;;;;;;15.5;10.6;;;;;;;10.2;47.3291;964.1683;;;;
2019/04/21 06:54:12;;;;;;;15.4;10.8;;;;;;;10.31;46.71777;964.2006;;;;
2019/04/21 06:56:37;;;;;;;13.1;10.1;;;;;;;10.44;45.86719;964.188;;;;
2019/04/21 06:59:02;;;;;;;15;10.6;;;;;;;10.58;45.32715;964.1916;;;;
2019/04/21 07:01:28;;;;;;;12.1;10.2;;;;;;;10.77;45.28809;964.1606;;;;
2019/04/21 07:03:54;;;;;;;14;10;;;;;;;11.04;46.06934;964.0818;;;;
2019/04/21 07:06:19;;;;;;;11.4;9.7;;;;;;;11.1;45.49805;964.0669;;;;
2019/04/21 07:08:44;;;;;;;12.7;10.4;;;;;;;11.12;45.2334;964.0783;;;;
2019/04/21 07:11:35;;;;;;;13.5;10.1;;;;;;;11.39;45.19238;964.0215;;;;
2019/04/21 07:14:14;;;;;;;12.9;9.2;;;;;;;11.46;45.08398;964.0697;;;;
2019/04/21 07:16:39;;;;;;;13.4;9.5;;;;;;;11.55;44.05273;964.0387;;;;
2019/04/21 07:19:14;;;;;;;11.2;9.7;;;;;;;11.72;43.375;964.0728;;;;
2019/04/21 07:21:39;;;;;;;12.5;9.3;;;;;;;11.85;43.69043;964.0421;;;;
2019/04/21 07:24:04;;;;;;;11.1;9.1;;;;;;;12.06;44.13867;963.9781;;;;
2019/04/21 07:26:30;;;;;;;13.9;8.8;;;;;;;12.36;44.22852;963.9925;;;;
2019/04/21 07:28:54;;;;;;;13.9;9.1;;;;;;;12.37;43.78809;963.9067;;;;
2019/04/21 07:31:19;;;;;;;10.4;8.5;;;;;;;12.51;44.11523;963.9819;;;;
2019/04/21 07:33:45;;;;;;;11.1;8.7;;;;;;;12.64;42.99316;963.895;;;;
2019/04/21 07:36:10;;;;;;;12.2;8.4;;;;;;;12.95;43.38184;963.8412;;;;
2019/04/21 07:38:39;;;;;;;10.1;8.1;;;;;;;13.17;43.74023;963.8428;;;;
2019/04/21 07:41:07;;;;;;;11.2;8.4;;;;;;;13.18;43.13867;963.8973;;;;
2019/04/21 07:43:32;;;;;;;10.5;8.1;;;;;;;13.31;43.26855;963.9211;;;;
2019/04/21 07:46:00;;;;;;;11.7;8.3;;;;;;;13.64;42.34766;963.7999;;;;
2019/04/21 07:48:28;;;;;;;10.9;7.9;;;;;;;13.77;41.32617;963.8666;;;;
2019/04/21 07:51:00;;;;;;;12;8.3;;;;;;;13.88;42.42969;963.8367;;;;
2019/04/21 07:53:19;;;;;;;12.7;8.4;;;;;;;13.92;42.28125;963.8116;;;;
2019/04/21 07:55:40;;;;;;;11.4;8.2;;;;;;;14.11;42.14941;963.8276;;;;
2019/04/21 07:58:05;;;;;;;10;7.8;;;;;;;14.27;41.65234;963.8362;;;;
2019/04/21 08:00:30;;;;;;;10.4;7.8;;;;;;;14.45;42.35547;963.8458;;;;
2019/04/21 08:02:58;;;;;;;9.3;7.7;;;;;;;14.58;41.45996;963.8441;;;;
2019/04/21 08:05:23;;;;;;;10.1;7.6;;;;;;;14.71;40.27344;963.7816;;;;
2019/04/21 08:07:48;;;;;;;11.9;8.4;;;;;;;14.88;39.79883;963.7146;;;;
2019/04/21 08:10:14;;;;;;;10.9;7.9;;;;;;;14.98;40.14746;963.7584;;;;
2019/04/21 08:12:39;;;;;;;10.3;7.7;;;;;;;15.06;40.59668;963.6941;;;;
2019/04/21 08:15:03;;;;;;;10.5;8.1;;;;;;;15.04;39.52246;963.7045;;;;
2019/04/21 08:17:29;;;;;;;10.6;7.8;;;;;;;15.13;39.64746;963.7106;;;;
2019/04/21 08:19:57;;;;;;;10.4;8;;;;;;;15.21;40.03809;963.6591;;;;
2019/04/21 08:22:28;;;;;;;9.1;7.4;;;;;;;15.48;40.16992;963.7166;;;;
2019/04/21 08:24:53;;;;;;;11.5;7.6;;;;;;;15.64;38.67773;963.6638;;;;
2019/04/21 08:27:26;;;;;;;8.6;6.7;;;;;;;15.9;38.49023;963.62;;;;
2019/04/21 08:29:59;;;;;;;11.5;7;;;;;;;16.18;37.54395;963.6035;;;;
2019/04/21 08:32:24;;;;;;;8.1;6.1;;;;;;;16.29;36.18652;963.6111;;;;
2019/04/21 08:34:51;;;;;;;10.8;6.6;;;;;;;16.43;35.89355;963.5508;;;;
2019/04/21 08:37:17;;;;;;;11.7;6.4;;;;;;;16.67;34.47461;963.6197;;;;
2019/04/21 08:39:43;;;;;;;8.4;6.2;;;;;;;16.89;33.54395;963.5536;;;;
2019/04/21 08:42:11;;;;;;;8.5;6;;;;;;;17.03;34.50293;963.5751;;;;
2019/04/21 08:44:36;;;;;;;7.9;6;;;;;;;17.16;35.41406;963.4902;;;;
2019/04/21 08:47:20;;;;;;;7.2;5.3;;;;;;;17.36;33.49609;963.5298;;;;
2019/04/21 08:50:03;;;;;;;7.7;5.3;;;;;;;17.43;33.32715;963.495;;;;
2019/04/21 08:52:28;;;;;;;5.8;5;;;;;;;17.49;31.98242;963.5003;;;;
2019/04/21 08:54:59;;;;;;;7;5.2;;;;;;;17.62;31.80371;963.4536;;;;
2019/04/21 08:57:32;;;;;;;8.7;5.4;;;;;;;17.75;33.19824;963.5142;;;;
2019/04/21 09:02:28;;;;;;;8.2;5.1;;;;;;;18.18;31.97363;963.4207;;;;
2019/04/21 09:04:52;;;;;;;6.8;5;;;;;;;18.24;31.73145;963.3867;;;;
2019/04/21 09:07:18;;;;;;;7.6;5.2;;;;;;;18.26;32.27344;963.3669;;;;
2019/04/21 09:09:43;;;;;;;9.1;5.1;;;;;;;18.55;31.71875;963.3456;;;;
2019/04/21 09:12:08;;;;;;;8.1;5.2;;;;;;;18.64;30.97363;963.2947;;;;
2019/04/21 09:14:35;;;;;;;6.9;5.3;;;;;;;18.91;32.00391;963.3072;;;;
2019/04/21 09:17:00;;;;;;;7.5;5.2;;;;;;;19.08;29.29785;963.2584;;;;
2019/04/21 09:19:25;;;;;;;6.8;5.2;;;;;;;18.93;27.09961;963.2261;;;;
2019/04/21 09:21:50;;;;;;;6.1;4.8;;;;;;;19.03;29.03613;963.1817;;;;
2019/04/21 09:24:15;;;;;;;8.6;5.3;;;;;;;19.27;29.53418;963.2717;;;;
2019/04/21 09:26:41;;;;;;;6.7;5.4;;;;;;;19.37;29.21094;963.2582;;;;
2019/04/21 09:29:23;;;;;;;7.3;5.3;;;;;;;19.64;27.55664;963.2389;;;;
2019/04/21 09:31:48;;;;;;;8.5;5.4;;;;;;;19.53;28.72754;963.1315;;;;
2019/04/21 09:34:13;;;;;;;6.7;5.4;;;;;;;19.71;28.62109;963.1077;;;;
2019/04/21 09:36:41;;;;;;;8.2;5.2;;;;;;;19.67;28.18262;963.092;;;;
2019/04/21 09:39:06;;;;;;;7.5;5.1;;;;;;;19.78;27.69531;963.0891;;;;
2019/04/21 09:41:32;;;;;;;8.1;5;;;;;;;20.15;27.8125;962.9864;;;;
2019/04/21 09:43:57;;;;;;;5.9;4.8;;;;;;;20.01;26.6123;963.0406;;;;
2019/04/21 09:46:22;;;;;;;7.8;4.8;;;;;;;20.14;26.10156;962.9875;;;;
2019/04/21 09:48:47;;;;;;;9.3;4.8;;;;;;;20.25;27.05176;963.0634;;;;
2019/04/21 09:51:13;;;;;;;6.1;4.7;;;;;;;20.4;25.64453;962.9598;;;;
2019/04/21 09:53:38;;;;;;;7.8;4.6;;;;;;;20.27;25.16504;962.9352;;;;
2019/04/21 09:56:07;;;;;;;6.4;4.7;;;;;;;20.53;26.64453;962.9328;;;;
2019/04/21 09:58:32;;;;;;;9.7;4.8;;;;;;;20.67;25.31738;962.9094;;;;
2019/04/21 10:01:02;;;;;;;9.1;4.7;;;;;;;20.56;24.59082;962.8297;;;;
2019/04/21 10:03:27;;;;;;;7.8;4.4;;;;;;;20.74;24.93164;962.7736;;;;
2019/04/21 10:05:52;;;;;;;9.8;4.8;;;;;;;20.8;25.91504;962.7739;;;;
2019/04/21 10:08:17;;;;;;;7.7;4.7;;;;;;;20.82;25.06641;962.7238;;;;
2019/04/21 10:10:43;;;;;;;6.8;4.7;;;;;;;21.12;23.91309;962.7411;;;;
2019/04/21 10:13:14;;;;;;;8.5;4.9;;;;;;;20.95;24.57813;962.7262;;;;
2019/04/21 10:15:39;;;;;;;6.8;4.5;;;;;;;21.4;25.56055;962.7173;;;;
2019/04/21 10:18:09;;;;;;;5.8;4.4;;;;;;;21.58;24.69531;962.6839;;;;
2019/04/21 10:20:39;;;;;;;7.9;4.7;;;;;;;21.81;24.53027;962.6803;;;;
2019/04/21 10:23:06;;;;;;;8.4;4.9;;;;;;;21.79;23.83105;962.6135;;;;
2019/04/21 10:25:32;;;;;;;7.2;4.4;;;;;;;21.69;22.94922;962.5417;;;;
2019/04/21 10:27:57;;;;;;;6;4.5;;;;;;;21.81;22.11523;962.5969;;;;
2019/04/21 10:30:23;;;;;;;6.1;4.3;;;;;;;21.93;22.74805;962.5892;;;;
2019/04/21 10:32:49;;;;;;;5.2;4;;;;;;;22.12;22.25;962.5209;;;;
2019/04/21 10:35:24;;;;;;;6;4.8;;;;;;;21.62;22.16504;962.543;;;;
2019/04/21 10:37:50;;;;;;;5.4;4.4;;;;;;;22.13;23.1377;962.5248;;;;
2019/04/21 10:40:16;;;;;;;4.3;3.9;;;;;;;21.97;21.56641;962.4822;;;;
2019/04/21 10:42:41;;;;;;;6.1;4.4;;;;;;;22.4;22.57129;962.3797;;;;
2019/04/21 10:45:06;;;;;;;6.6;4.6;;;;;;;21.94;20.15625;962.3834;;;;
2019/04/21 10:47:31;;;;;;;5.1;4.2;;;;;;;21.96;21.0918;962.389;;;;
2019/04/21 10:49:56;;;;;;;5.5;4.4;;;;;;;21.82;22.43555;962.3082;;;;
2019/04/21 10:52:26;;;;;;;7;4.4;;;;;;;22.47;22.88379;962.2218;;;;
2019/04/21 10:54:48;;;;;;;5.1;3.9;;;;;;;22.91;22.64551;962.1731;;;;
2019/04/21 10:57:18;;;;;;;6.3;4.3;;;;;;;23.15;23.01367;962.166;;;;
2019/04/21 10:59:39;;;;;;;5.4;4.4;;;;;;;22.64;21.0293;962.2004;;;;
2019/04/21 11:02:10;;;;;;;10;4.5;;;;;;;23.16;23.40527;962.1959;;;;
2019/04/21 11:04:31;;;;;;;7.3;4.4;;;;;;;22.93;21.61328;962.2399;;;;
2019/04/21 11:07:02;;;;;;;5.2;4.1;;;;;;;23.38;21.96777;962.222;;;;
2019/04/21 11:09:24;;;;;;;4.6;4;;;;;;;22.92;20.54492;962.1277;;;;
2019/04/21 11:11:51;;;;;;;7.5;4.4;;;;;;;23.15;21.04199;962.1146;;;;
2019/04/21 11:14:17;;;;;;;5.6;4.2;;;;;;;23.34;22.41699;962.0723;;;;
2019/04/21 11:16:42;;;;;;;5;4.5;;;;;;;23.63;19.66211;962.1016;;;;
2019/04/21 11:19:07;;;;;;;6.7;4.3;;;;;;;23.57;21.08594;961.9976;;;;
2019/04/21 11:21:35;;;;;;;5.4;3.7;;;;;;;23.62;21.08887;962.0715;;;;
2019/04/21 11:24:00;;;;;;;8.2;4.3;;;;;;;23.33;22.11914;961.9609;;;;
2019/04/21 11:26:25;;;;;;;7.7;4.1;;;;;;;24.47;19.74707;961.9659;;;;
2019/04/21 11:28:50;;;;;;;7;4.4;;;;;;;23.92;20.4834;961.9651;;;;
2019/04/21 11:31:15;;;;;;;5.1;4.6;;;;;;;23.94;19.89063;961.8608;;;;
2019/04/21 11:33:40;;;;;;;7.4;4.7;;;;;;;23.62;21.05273;961.8767;;;;
2019/04/21 11:36:05;;;;;;;6;4.3;;;;;;;23.95;20.81836;961.8729;;;;
2019/04/21 11:38:38;;;;;;;7.3;4.6;;;;;;;23.5;19.01465;961.8865;;;;
2019/04/21 11:40:56;;;;;;;8;4.8;;;;;;;24.26;20.77344;961.8756;;;;
2019/04/21 11:43:23;;;;;;;5.5;5;;;;;;;24.4;20.04199;961.9103;;;;
2019/04/21 11:45:48;;;;;;;7;4.7;;;;;;;24.74;19.19922;961.8211;;;;
2019/04/21 11:48:18;;;;;;;6.4;4.9;;;;;;;25.06;19.62988;961.7878;;;;
2019/04/21 11:50:38;;;;;;;8.9;5.2;;;;;;;25.01;19.3291;961.6823;;;;
2019/04/21 11:53:04;;;;;;;5.8;4.7;;;;;;;25.63;17.1709;961.7256;;;;
2019/04/21 11:55:29;;;;;;;8.2;4.8;;;;;;;25.53;15.9502;961.7498;;;;
2019/04/21 11:58:02;;;;;;;6.2;4.4;;;;;;;25.32;18.28125;961.7586;;;;
2019/04/21 12:00:36;;;;;;;6.9;4.6;;;;;;;24.87;17.83398;961.8656;;;;
2019/04/21 12:03:02;;;;;;;7.7;5.6;;;;;;;24.76;18.78223;961.6879;;;;
2019/04/21 12:05:27;;;;;;;8.6;4.9;;;;;;;25.21;18.28809;961.6845;;;;
2019/04/21 12:07:52;;;;;;;6.8;5.2;;;;;;;25.7;17.79492;961.6973;;;;
2019/04/21 12:10:19;;;;;;;8.4;4.6;;;;;;;25.56;17.00098;961.7424;;;;
2019/04/21 12:12:44;;;;;;;7.8;4.8;;;;;;;25.34;18.73535;961.6462;;;;
2019/04/21 12:15:09;;;;;;;5.4;4.9;;;;;;;25.95;15.47461;961.5944;;;;
2019/04/21 12:17:35;;;;;;;5.8;5.2;;;;;;;25.18;17.79785;961.62;;;;
2019/04/21 12:20:01;;;;;;;11.9;5;;;;;;;25.98;18.6543;961.6323;;;;
2019/04/21 12:22:27;;;;;;;6.5;4.8;;;;;;;25.65;16.89746;961.5739;;;;
2019/04/21 12:24:52;;;;;;;5.6;5;;;;;;;25.57;17.77734;961.4959;;;;
2019/04/21 12:27:18;;;;;;;6.4;4.8;;;;;;;25.71;18.52344;961.5636;;;;
2019/04/21 12:29:46;;;;;;;6.4;4.8;;;;;;;25.6;17.46875;961.6469;;;;
2019/04/21 12:34:36;;;;;;;5.7;4.8;;;;;;;26.06;16.29102;961.3967;;;;
2019/04/21 12:37:01;;;;;;;6.1;4.7;;;;;;;25.86;16.64258;961.325;;;;
2019/04/21 12:39:26;;;;;;;5.4;4.9;;;;;;;26.19;16.71387;961.3842;;;;
2019/04/21 12:42:10;;;;;;;7;4.9;;;;;;;25.67;17.35156;961.4047;;;;
2019/04/21 12:44:36;;;;;;;5.8;5.1;;;;;;;26.03;17.21094;961.3574;;;;
2019/04/21 12:47:01;;;;;;;5.4;4.6;;;;;;;26.16;16.95215;961.2396;;;;
2019/04/21 12:49:36;;;;;;;5.3;4.8;;;;;;;27.31;14.88574;961.2081;;;;
2019/04/21 12:52:03;;;;;;;5.6;4.7;;;;;;;27.06;15.27344;961.1711;;;;
2019/04/21 12:54:28;;;;;;;5.5;4.4;;;;;;;27.42;15.65723;961.0793;;;;
2019/04/21 12:56:53;;;;;;;4.9;4.4;;;;;;;26.62;15.58105;961.0314;;;;
2019/04/21 12:59:19;;;;;;;7.3;4.7;;;;;;;26.93;15.48438;961.0673;;;;
2019/04/21 13:01:44;;;;;;;5;4.5;;;;;;;26.98;15.75;960.9963;;;;
2019/04/21 13:04:11;;;;;;;6.7;4.7;;;;;;;27.01;15.1875;961.0044;;;;
2019/04/21 13:06:36;;;;;;;5.3;4.4;;;;;;;26.55;14.47852;960.9827;;;;
2019/04/21 13:09:02;;;;;;;6.2;4.7;;;;;;;26.28;15.23438;960.9659;;;;
2019/04/21 13:11:29;;;;;;;5.9;4.7;;;;;;;26.64;15.48633;960.9224;;;;
2019/04/21 13:13:55;;;;;;;5;4.5;;;;;;;26.8;15.4082;960.9621;;;;
2019/04/21 13:16:20;;;;;;;5.1;4.4;;;;;;;26.49;14.6084;960.8658;;;;
2019/04/21 13:18:45;;;;;;;5.1;4.2;;;;;;;27.88;14.5332;960.8982;;;;
2019/04/21 13:21:10;;;;;;;7.3;4.7;;;;;;;28.01;14.57324;960.9017;;;;
2019/04/21 13:23:35;;;;;;;5.9;4.2;;;;;;;27.82;13.15137;960.9314;;;;
2019/04/21 13:26:00;;;;;;;5;4.6;;;;;;;28;14.35742;960.7452;;;;
2019/04/21 13:28:25;;;;;;;6.2;5.1;;;;;;;27.9;13.41699;960.8208;;;;
2019/04/21 13:30:50;;;;;;;6.6;5.1;;;;;;;28.26;14.79785;960.7388;;;;
2019/04/21 13:33:16;;;;;;;6.2;4.6;;;;;;;27.44;15.64551;960.7689;;;;
2019/04/21 13:35:41;;;;;;;5.4;4.4;;;;;;;27.94;14.46289;960.6153;;;;
2019/04/21 13:38:06;;;;;;;5.9;4.5;;;;;;;28.69;15.2207;960.6628;;;;
2019/04/21 13:42:56;;;;;;;6.9;5;;;;;;;27.06;14.53027;960.5011;;;;
2019/04/21 13:45:21;;;;;;;5.6;4.5;;;;;;;28;14.26074;960.4874;;;;
2019/04/21 13:47:48;;;;;;;9.9;4.6;;;;;;;27.06;14.15918;960.4788;;;;
2019/04/21 13:50:14;;;;;;;4.2;3.8;;;;;;;27.39;15.23633;960.4444;;;;
2019/04/21 13:52:39;;;;;;;4.9;4.3;;;;;;;27.24;15.02832;960.4434;;;;
2019/04/21 13:55:07;;;;;;;5.8;4.2;;;;;;;29.24;13.90332;960.4278;;;;
2019/04/21 13:57:32;;;;;;;5.6;4.2;;;;;;;27.73;14.95996;960.3187;;;;
2019/04/21 13:59:58;;;;;;;7;4.5;;;;;;;27.89;13.16504;960.2747;;;;
2019/04/21 14:02:23;;;;;;;5.2;4.2;;;;;;;28.35;14.10352;960.2317;;;;
2019/04/21 14:04:51;;;;;;;5.7;4.4;;;;;;;27.95;14.71484;960.2772;;;;
2019/04/21 14:07:16;;;;;;;5.1;4.6;;;;;;;27.43;14.44629;960.205;;;;
2019/04/21 14:09:41;;;;;;;4.5;4.1;;;;;;;28.87;14.37305;960.2043;;;;
2019/04/21 14:12:06;;;;;;;6.1;4.8;;;;;;;27.13;14.06543;960.1163;;;;
2019/04/21 14:14:33;;;;;;;7.4;4.6;;;;;;;27.53;15.7334;960.1652;;;;
2019/04/21 14:16:58;;;;;;;5.2;4.3;;;;;;;26.96;14.13184;960.1555;;;;
2019/04/21 14:19:24;;;;;;;6;4.4;;;;;;;27.73;13.82031;960.1872;;;;
2019/04/21 14:21:48;;;;;;;5.3;4.4;;;;;;;27.36;13.62891;960.1301;;;;
2019/04/21 14:24:13;;;;;;;5.1;4.2;;;;;;;27.27;13.92676;960.1753;;;;
2019/04/21 14:26:45;;;;;;;7.9;4.5;;;;;;;28.1;13.47168;960.092;;;;